createdAt,value
2018-07-20T00:04:24.465Z,96882.48
2018-07-20T00:09:19.181Z,96886.92
2018-07-20T00:14:13.793Z,96879.29
2018-07-20T00:19:08.441Z,96870.23
2018-07-20T00:24:03.115Z,96877.72
2018-07-20T00:28:57.691Z,96868.22
2018-07-20T00:33:52.435Z,96860.60
2018-07-20T00:38:48.094Z,96864.14
2018-07-20T00:43:42.935Z,96861.37
2018-07-20T00:48:37.676Z,96855.84
2018-07-20T00:53:32.486Z,96854.84
2018-07-20T00:58:27.334Z,96854.55
2018-07-20T01:03:21.702Z,96858.14
2018-07-20T01:08:16.417Z,96850.65
2018-07-20T01:13:11.162Z,96844.50
2018-07-20T01:18:06.046Z,96839.73
2018-07-20T01:23:00.718Z,96843.48
2018-07-20T01:27:55.376Z,96838.58
2018-07-20T01:32:50.070Z,96837.16
2018-07-20T01:37:44.703Z,96839.77
2018-07-20T01:42:39.188Z,96842.91
2018-07-20T01:47:33.819Z,96844.53
2018-07-20T01:52:28.470Z,96843.50
2018-07-20T01:57:23.352Z,96846.96
2018-07-20T02:02:18.100Z,96837.09
2018-07-20T02:07:12.698Z,96844.87
2018-07-20T02:12:07.424Z,96843.02
2018-07-20T02:17:02.154Z,96834.05
2018-07-20T02:21:56.943Z,96828.17
2018-07-20T02:26:51.615Z,96825.88
2018-07-20T02:31:46.300Z,96829.32
2018-07-20T02:36:41.023Z,96827.53
2018-07-20T02:41:35.307Z,96819.42
2018-07-20T02:46:30.562Z,96821.94
2018-07-20T02:51:25.183Z,96836.90
2018-07-20T02:56:19.876Z,96831.05
2018-07-20T03:01:14.480Z,96836.56
2018-07-20T03:06:09.134Z,96835.36
2018-07-20T03:11:03.723Z,96835.25
2018-07-20T03:15:58.299Z,96839.19
2018-07-20T03:20:53.171Z,96836.89
2018-07-20T03:25:47.861Z,96847.33
2018-07-20T03:30:42.488Z,96848.38
2018-07-20T03:35:37.058Z,96850.38
2018-07-20T03:40:31.732Z,96852.17
2018-07-20T03:50:15.168Z,96839.87
2018-07-20T03:55:09.760Z,96838.42
2018-07-20T04:00:05.300Z,96839.30
2018-07-20T04:04:59.978Z,96840.52
2018-07-20T04:09:54.779Z,96839.19
2018-07-20T04:14:50.060Z,96844.06
2018-07-20T04:19:44.613Z,96839.66
2018-07-20T04:24:39.389Z,96837.02
2018-07-20T04:29:34.103Z,96839.06
2018-07-20T04:34:28.682Z,96843.27
2018-07-20T04:39:23.464Z,96849.30
2018-07-20T04:44:18.064Z,96852.77
2018-07-20T04:49:12.779Z,96852.94
2018-07-20T04:54:07.635Z,96849.88
2018-07-20T04:59:02.368Z,96856.07
2018-07-20T05:03:57.144Z,96858.39
2018-07-20T05:08:51.872Z,96865.00
2018-07-20T05:13:46.653Z,96862.55
2018-07-20T05:18:41.367Z,96857.23
2018-07-20T05:23:36.046Z,96856.06
2018-07-20T05:28:30.814Z,96851.61
2018-07-20T05:33:25.485Z,96851.34
2018-07-20T05:38:20.169Z,96849.94
2018-07-20T05:43:15.143Z,96846.70
2018-07-20T05:48:10.063Z,96849.18
2018-07-20T05:53:04.757Z,96839.42
2018-07-20T05:58:00.326Z,96841.30
2018-07-20T06:02:54.995Z,96841.91
2018-07-20T06:07:49.725Z,96840.78
2018-07-20T06:12:44.442Z,96840.26
2018-07-20T06:17:39.242Z,96840.57
2018-07-20T06:22:34.124Z,96843.04
2018-07-20T06:27:28.999Z,96839.89
2018-07-20T06:32:23.719Z,96832.80
2018-07-20T06:37:18.813Z,96837.70
2018-07-20T06:42:13.521Z,96843.36
2018-07-20T06:47:08.558Z,96837.23
2018-07-20T06:52:06.111Z,96842.41
2018-07-20T06:57:00.810Z,96839.73
2018-07-20T07:01:55.359Z,96845.09
2018-07-20T07:06:50.052Z,96835.38
2018-07-20T07:11:44.812Z,96828.98
2018-07-20T07:16:39.635Z,96828.95
2018-07-20T07:21:34.255Z,96838.94
2018-07-20T07:26:28.979Z,96842.50
2018-07-20T07:31:23.702Z,96843.28
2018-07-20T07:36:18.313Z,96844.59
2018-07-20T07:41:13.098Z,96845.62
2018-07-20T07:46:07.861Z,96836.13
2018-07-20T07:51:02.212Z,96837.16
2018-07-20T07:55:56.961Z,96833.98
2018-07-20T08:00:51.755Z,96837.34
2018-07-20T08:05:46.336Z,96830.59
2018-07-20T08:10:40.946Z,96830.95
2018-07-20T08:15:35.637Z,96825.75
2018-07-20T08:20:30.307Z,96821.84
2018-07-20T08:25:25.027Z,96826.80
2018-07-20T08:30:19.742Z,96818.39
2018-07-20T08:35:14.483Z,96818.05
2018-07-20T08:40:09.317Z,96817.23
2018-07-20T08:45:04.013Z,96822.52
2018-07-20T08:49:58.611Z,96825.59
2018-07-20T08:54:53.229Z,96813.66
2018-07-20T08:59:48.156Z,96810.47
2018-07-20T09:04:42.870Z,96802.77
2018-07-20T09:09:37.460Z,96810.30
2018-07-20T09:14:32.109Z,96807.88
2018-07-20T09:19:26.872Z,96810.59
2018-07-20T09:24:21.581Z,96808.64
2018-07-20T09:29:16.404Z,96805.76
2018-07-20T09:34:11.169Z,96803.33
2018-07-20T09:39:09.905Z,96801.38
2018-07-20T09:44:04.707Z,96799.70
2018-07-20T09:48:59.367Z,96798.32
2018-07-20T09:53:54.096Z,96790.61
2018-07-20T09:58:48.816Z,96790.30
2018-07-20T10:03:43.561Z,96788.48
2018-07-20T10:08:38.251Z,96777.39
2018-07-20T10:13:32.955Z,96774.70
2018-07-20T10:18:27.707Z,96771.92
2018-07-20T10:23:22.280Z,96761.37
2018-07-20T10:28:16.978Z,96756.91
2018-07-20T10:33:11.688Z,96754.93
2018-07-20T10:38:06.521Z,96747.44
2018-07-20T10:43:01.237Z,96744.06
2018-07-20T10:47:56.066Z,96734.05
2018-07-20T10:52:50.891Z,96729.92
2018-07-20T10:57:45.667Z,96721.78
2018-07-20T11:02:40.568Z,96715.04
2018-07-20T11:07:35.466Z,96708.71
2018-07-20T11:12:30.079Z,96710.83
2018-07-20T11:17:25.192Z,96701.36
2018-07-20T11:22:19.965Z,96697.05
2018-07-20T11:27:14.794Z,96688.70
2018-07-20T11:32:09.550Z,96679.53
2018-07-20T11:37:04.180Z,96677.59
2018-07-20T11:41:58.833Z,96668.33
2018-07-20T11:46:53.554Z,96658.83
2018-07-20T11:51:48.171Z,96658.91
2018-07-20T11:56:42.817Z,96644.95
2018-07-20T12:01:37.567Z,96643.47
2018-07-20T12:06:32.331Z,96630.30
2018-07-20T12:11:27.031Z,96624.69
2018-07-20T12:16:21.841Z,96626.37
2018-07-20T12:21:16.691Z,96615.63
2018-07-20T12:26:11.384Z,96608.45
2018-07-20T12:31:06.220Z,96606.25
2018-07-20T12:36:00.822Z,96607.44
2018-07-20T12:40:55.550Z,96602.23
2018-07-20T12:45:50.246Z,96606.42
2018-07-20T12:50:44.973Z,96607.75
2018-07-20T12:55:39.712Z,96610.13
2018-07-20T13:00:34.451Z,96602.36
2018-07-20T13:05:29.451Z,96611.81
2018-07-20T13:10:24.166Z,96601.77
2018-07-20T13:15:19.007Z,96609.48
2018-07-20T13:20:13.591Z,96611.26
2018-07-20T13:25:08.344Z,96608.08
2018-07-20T13:30:03.107Z,96610.72
2018-07-20T13:34:57.761Z,96606.02
2018-07-20T13:39:52.492Z,96611.60
2018-07-20T13:44:47.168Z,96605.16
2018-07-20T13:49:41.868Z,96597.35
2018-07-20T13:54:36.630Z,96589.84
2018-07-20T13:59:31.387Z,96583.41
2018-07-20T14:04:26.291Z,96579.11
2018-07-20T14:09:21.025Z,96574.34
2018-07-20T14:14:15.797Z,96568.57
2018-07-20T14:19:10.124Z,96568.16
2018-07-20T14:24:04.945Z,96563.68
2018-07-20T14:28:59.624Z,96554.83
2018-07-20T14:33:54.382Z,96557.45
2018-07-20T14:38:48.987Z,96563.34
2018-07-20T14:43:43.611Z,96556.22
2018-07-20T14:48:38.305Z,96561.84
2018-07-20T14:53:32.882Z,96557.90
2018-07-20T14:58:27.561Z,96568.41
2018-07-20T15:03:22.152Z,96563.58
2018-07-20T15:08:16.803Z,96552.20
2018-07-20T15:13:11.428Z,96567.58
2018-07-20T15:18:06.160Z,96574.55
2018-07-20T15:23:00.887Z,96574.00
2018-07-20T15:27:55.665Z,96572.23
2018-07-20T15:32:50.349Z,96577.73
2018-07-20T15:37:45.028Z,96585.09
2018-07-20T15:42:40.496Z,96585.94
2018-07-20T15:47:35.158Z,96596.89
2018-07-20T15:57:24.684Z,96607.07
2018-07-20T16:02:20.407Z,96606.26
2018-07-20T16:07:15.235Z,96598.55
2018-07-20T16:12:09.903Z,96598.15
2018-07-20T16:17:04.577Z,96595.55
2018-07-20T16:21:59.285Z,96590.30
2018-07-20T16:26:54.136Z,96593.66
2018-07-20T16:31:48.811Z,96593.68
2018-07-20T16:36:43.615Z,96595.73
2018-07-20T16:41:38.284Z,96590.16
2018-07-20T16:46:33.174Z,96599.90
2018-07-20T16:51:27.913Z,96598.84
2018-07-20T16:56:22.779Z,96601.50
2018-07-20T17:01:17.668Z,96603.94
2018-07-20T17:06:12.319Z,96612.28
2018-07-20T17:11:07.468Z,96618.00
2018-07-20T17:16:02.155Z,96617.69
2018-07-20T17:20:56.917Z,96625.94
2018-07-20T17:25:51.727Z,96629.81
2018-07-20T17:30:46.354Z,96633.52
2018-07-20T17:35:41.511Z,96629.50
2018-07-20T17:40:36.127Z,96639.64
2018-07-20T17:45:31.690Z,96640.70
2018-07-20T17:50:26.290Z,96643.88
2018-07-20T17:55:21.055Z,96648.27
2018-07-20T18:00:15.680Z,96659.45
2018-07-20T18:05:10.440Z,96654.09
2018-07-20T18:10:05.790Z,96650.45
2018-07-20T18:15:00.932Z,96658.84
2018-07-20T18:19:55.650Z,96657.11
2018-07-20T18:24:50.741Z,96662.66
2018-07-20T18:29:45.446Z,96669.30
2018-07-20T18:34:40.244Z,96676.11
2018-07-20T18:39:34.976Z,96677.08
2018-07-20T18:44:30.084Z,96662.64
2018-07-20T18:49:24.861Z,96664.06
2018-07-20T18:54:22.823Z,96659.89
2018-07-20T18:59:17.556Z,96658.39
2018-07-20T19:04:12.475Z,96647.66
2018-07-20T19:09:10.462Z,96655.53
2018-07-20T19:14:05.475Z,96651.21
2018-07-20T19:19:00.293Z,96649.50
2018-07-20T19:23:55.071Z,96656.58
2018-07-20T19:28:49.797Z,96663.63
2018-07-20T19:33:44.488Z,96676.19
2018-07-20T19:38:39.196Z,96686.23
2018-07-20T19:43:34.304Z,96688.77
2018-07-20T19:48:29.165Z,96693.67
2018-07-20T19:53:23.916Z,96698.71
2018-07-20T19:58:18.709Z,96702.52
2018-07-20T20:03:13.689Z,96708.16
2018-07-20T20:08:08.456Z,96708.28
2018-07-20T20:13:03.217Z,96695.77
2018-07-20T20:17:58.144Z,96694.30
2018-07-20T20:22:52.509Z,96698.41
2018-07-20T20:27:48.286Z,96694.26
2018-07-20T20:32:43.261Z,96707.86
2018-07-20T20:37:38.153Z,96710.31
2018-07-20T20:42:32.953Z,96708.10
2018-07-20T20:47:27.326Z,96716.27
2018-07-20T20:52:21.719Z,96712.47
2018-07-20T20:57:16.446Z,96712.70
2018-07-20T21:02:11.223Z,96715.47
2018-07-20T21:07:06.031Z,96723.33
2018-07-20T21:12:00.915Z,96724.05
2018-07-20T21:16:55.584Z,96718.97
2018-07-20T21:21:50.399Z,96726.53
2018-07-20T21:26:45.140Z,96726.94
2018-07-20T21:31:39.777Z,96713.63
2018-07-20T21:36:34.591Z,96715.80
2018-07-20T21:41:29.253Z,96723.51
2018-07-20T21:46:30.192Z,96714.64
2018-07-20T21:51:24.876Z,96709.39
2018-07-20T21:56:20.574Z,96717.52
2018-07-20T22:01:15.270Z,96709.33
2018-07-20T22:06:10.141Z,96720.28
2018-07-20T22:11:04.935Z,96724.13
2018-07-20T22:15:59.643Z,96718.81
2018-07-20T22:20:55.150Z,96729.70
2018-07-20T22:25:49.860Z,96720.33
2018-07-20T22:30:44.622Z,96710.31
2018-07-20T22:35:39.359Z,96724.06
2018-07-20T22:40:34.043Z,96723.16
2018-07-20T22:45:28.661Z,96721.69
2018-07-20T22:50:23.343Z,96718.92
2018-07-20T22:55:18.010Z,96727.06
2018-07-20T23:00:12.706Z,96725.77
2018-07-20T23:05:07.429Z,96721.11
2018-07-20T23:10:02.063Z,96723.92
2018-07-20T23:14:57.004Z,96727.59
2018-07-20T23:19:51.669Z,96721.19
2018-07-20T23:24:46.300Z,96718.31
2018-07-20T23:29:41.025Z,96720.16
2018-07-20T23:34:35.605Z,96719.27
2018-07-20T23:39:31.155Z,96720.19
2018-07-20T23:44:25.854Z,96721.42
2018-07-20T23:49:20.548Z,96715.02
2018-07-20T23:54:15.230Z,96697.93
2018-07-20T23:59:10.009Z,96696.33
